Time;durP1;ratioP1;P1;durP2;ratioP2;P2;SDS_P1;SDS_P2;PMS_P1;PMS_P2;Temp;Humidity;BMP_temperature;BMP_pressure;BME280_temperature;BME280_humidity;BME280_pressure;Samples;Min_cycle;Max_cycle;Signal;HPM_P1;HPM_P2
2022/10/10 00:02:03;;;;;;;6.97;5.90;;;;;;;;;;5065227;28;20320;-85
2022/10/10 00:04:32;;;;;;;10.23;6.83;;;;;;;;;;5032213;28;20208;-84
2022/10/10 00:07:00;;;;;;;6.40;5.80;;;;;;;;;;5035528;28;20197;-84
2022/10/10 00:09:28;;;;;;;7.37;4.83;;;;;;;;;;5051891;28;20206;-85
2022/10/10 00:11:57;;;;;;;10.77;7.43;;;;;;;;;;5050931;28;20196;-84
2022/10/10 00:14:25;;;;;;;7.67;6.87;;;;;;;;;;5051797;28;20299;-84
2022/10/10 00:16:59;;;;;;;6.67;5.97;;;;;;;;;;5045927;28;20197;-85
2022/10/10 00:19:29;;;;;;;7.87;6.90;;;;;;;;;;5032368;28;20205;-84
2022/10/10 00:21:57;;;;;;;8.63;6.60;;;;;;;;;;5046044;28;20222;-84
2022/10/10 00:24:26;;;;;;;8.27;7.33;;;;;;;;;;5032783;28;20288;-84
2022/10/10 00:26:54;;;;;;;15.70;7.47;;;;;;;;;;5068278;28;20203;-84
2022/10/10 00:29:22;;;;;;;6.17;5.30;;;;;;;;;;5050060;28;20226;-84
2022/10/10 00:31:51;;;;;;;9.97;7.40;;;;;;;;;;5040124;28;20197;-84
2022/10/10 00:34:19;;;;;;;8.23;7.37;;;;;;;;;;5036906;28;20209;-84
2022/10/10 00:36:49;;;;;;;5.43;4.53;;;;;;;;;;5033011;28;20235;-84
2022/10/10 00:39:17;;;;;;;8.63;7.20;;;;;;;;;;5036462;28;20198;-84
2022/10/10 00:41:45;;;;;;;8.90;8.00;;;;;;;;;;5033361;28;20217;-85
2022/10/10 00:44:15;;;;;;;8.67;6.70;;;;;;;;;;5067644;28;20201;-84
2022/10/10 00:46:44;;;;;;;7.90;7.13;;;;;;;;;;5054683;28;20204;-85
2022/10/10 00:49:15;;;;;;;8.63;6.27;;;;;;;;;;5043948;28;20208;-84
2022/10/10 00:51:46;;;;;;;9.27;5.90;;;;;;;;;;5044318;28;20224;-85
2022/10/10 00:54:17;;;;;;;7.33;6.10;;;;;;;;;;5043297;28;20249;-84
2022/10/10 00:56:48;;;;;;;11.07;6.97;;;;;;;;;;5053387;28;20295;-84
2022/10/10 00:59:17;;;;;;;7.70;6.90;;;;;;;;;;5030616;28;20196;-84
2022/10/10 01:01:46;;;;;;;9.90;7.53;;;;;;;;;;5053952;28;20224;-84
2022/10/10 01:04:33;;;;;;;8.73;7.63;;;;;;;;;;5042336;28;20290;-85
2022/10/10 01:07:03;;;;;;;8.07;4.90;;;;;;;;;;5050600;28;20215;-85
2022/10/10 01:09:33;;;;;;;8.00;7.23;;;;;;;;;;5045864;28;20202;-85
2022/10/10 01:12:05;;;;;;;9.67;6.17;;;;;;;;;;5037041;28;20270;-84
2022/10/10 01:14:37;;;;;;;5.10;4.60;;;;;;;;;;5035197;28;20243;-84
2022/10/10 01:17:07;;;;;;;8.87;7.50;;;;;;;;;;5023133;28;20224;-85
2022/10/10 01:19:59;;;;;;;8.23;6.63;;;;;;;;;;5035680;28;20204;-85
2022/10/10 01:22:33;;;;;;;8.70;6.27;;;;;;;;;;5034746;28;20271;-85
2022/10/10 01:25:11;;;;;;;7.93;7.23;;;;;;;;;;5034683;28;20221;-84
2022/10/10 01:27:42;;;;;;;10.07;7.33;;;;;;;;;;5049134;28;20205;-84
2022/10/10 01:30:13;;;;;;;6.70;6.10;;;;;;;;;;5054623;28;20220;-84
2022/10/10 01:32:47;;;;;;;7.03;6.23;;;;;;;;;;5062310;28;20205;-84
2022/10/10 01:35:23;;;;;;;8.03;7.17;;;;;;;;;;5055116;28;20198;-84
2022/10/10 01:37:54;;;;;;;8.93;8.03;;;;;;;;;;5049304;28;20232;-84
2022/10/10 01:40:28;;;;;;;7.23;6.63;;;;;;;;;;5046852;28;20202;-84
2022/10/10 01:42:59;;;;;;;10.00;7.67;;;;;;;;;;5040358;28;20280;-84
2022/10/10 01:45:30;;;;;;;8.07;6.67;;;;;;;;;;5026902;28;20203;-84
2022/10/10 01:47:59;;;;;;;7.83;6.13;;;;;;;;;;5030814;28;20197;-85
2022/10/10 01:50:28;;;;;;;7.57;6.67;;;;;;;;;;5069490;28;20264;-84
2022/10/10 01:53:02;;;;;;;7.80;7.00;;;;;;;;;;5053547;28;20205;-84
2022/10/10 01:55:36;;;;;;;8.30;7.37;;;;;;;;;;5065987;28;20289;-84
2022/10/10 01:58:10;;;;;;;7.40;6.67;;;;;;;;;;5070267;28;20232;-84
2022/10/10 02:00:45;;;;;;;8.27;6.13;;;;;;;;;;5036701;28;20200;-85
2022/10/10 02:03:16;;;;;;;9.33;6.97;;;;;;;;;;5046313;28;20223;-84
2022/10/10 02:05:47;;;;;;;7.97;7.17;;;;;;;;;;5040517;28;20213;-85
2022/10/10 02:08:20;;;;;;;10.27;7.23;;;;;;;;;;5053693;28;20200;-84
2022/10/10 02:10:50;;;;;;;7.63;6.87;;;;;;;;;;5042462;28;20266;-85
2022/10/10 02:13:19;;;;;;;11.63;7.47;;;;;;;;;;5067376;28;20261;-84
2022/10/10 02:15:52;;;;;;;10.67;5.97;;;;;;;;;;5033521;28;20210;-84
2022/10/10 02:18:22;;;;;;;10.07;6.87;;;;;;;;;;5033481;28;20235;-84
2022/10/10 02:20:51;;;;;;;6.50;4.27;;;;;;;;;;5034102;28;20204;-84
2022/10/10 02:23:21;;;;;;;10.13;7.93;;;;;;;;;;5047060;28;20246;-84
2022/10/10 02:25:52;;;;;;;7.07;6.37;;;;;;;;;;5034356;28;20208;-84
2022/10/10 02:28:23;;;;;;;9.60;8.70;;;;;;;;;;5046627;28;20193;-84
2022/10/10 02:30:56;;;;;;;11.00;6.93;;;;;;;;;;5045748;28;20564;-84
2022/10/10 02:33:27;;;;;;;8.57;7.60;;;;;;;;;;5017338;28;20238;-84
2022/10/10 02:35:56;;;;;;;7.00;5.93;;;;;;;;;;5032089;28;20240;-84
2022/10/10 02:38:25;;;;;;;10.03;7.37;;;;;;;;;;5049370;28;20678;-84
2022/10/10 02:40:54;;;;;;;9.37;8.40;;;;;;;;;;5034104;28;20228;-84
2022/10/10 02:43:22;;;;;;;6.20;5.60;;;;;;;;;;5049632;28;20221;-84
2022/10/10 02:45:51;;;;;;;9.40;8.37;;;;;;;;;;5033529;28;20259;-84
2022/10/10 02:48:21;;;;;;;7.97;5.17;;;;;;;;;;5050941;28;20283;-84
2022/10/10 02:50:49;;;;;;;7.80;7.07;;;;;;;;;;5042484;28;20212;-84
2022/10/10 02:53:17;;;;;;;10.07;8.63;;;;;;;;;;5032942;28;20201;-84
2022/10/10 02:55:46;;;;;;;10.30;7.67;;;;;;;;;;5034057;28;20206;-84
2022/10/10 02:58:14;;;;;;;11.33;8.70;;;;;;;;;;5045766;28;20226;-84
2022/10/10 03:00:42;;;;;;;8.37;7.03;;;;;;;;;;5041568;28;20236;-85
2022/10/10 03:03:11;;;;;;;13.83;9.40;;;;;;;;;;5052521;28;20218;-85
2022/10/10 03:05:41;;;;;;;6.83;5.13;;;;;;;;;;5052101;28;20224;-84
2022/10/10 03:08:09;;;;;;;8.90;8.00;;;;;;;;;;5035331;28;20231;-85
2022/10/10 03:10:39;;;;;;;8.53;7.63;;;;;;;;;;5042366;28;20225;-84
2022/10/10 03:13:07;;;;;;;11.40;8.23;;;;;;;;;;5051262;28;20227;-84
2022/10/10 03:15:36;;;;;;;10.57;8.00;;;;;;;;;;5051941;28;20238;-85
2022/10/10 03:18:05;;;;;;;11.00;9.37;;;;;;;;;;5044488;28;20201;-85
2022/10/10 03:20:33;;;;;;;10.23;7.00;;;;;;;;;;5047382;28;20202;-84
2022/10/10 03:23:03;;;;;;;10.53;7.33;;;;;;;;;;5045032;28;20244;-85
2022/10/10 03:25:33;;;;;;;7.57;6.70;;;;;;;;;;5051143;28;20205;-85
2022/10/10 03:28:02;;;;;;;7.30;6.60;;;;;;;;;;5067943;28;20208;-85
2022/10/10 03:30:30;;;;;;;19.13;7.17;;;;;;;;;;5028948;28;20219;-84
2022/10/10 03:32:58;;;;;;;8.60;7.70;;;;;;;;;;5038740;28;20299;-85
2022/10/10 03:35:27;;;;;;;10.57;9.33;;;;;;;;;;5068486;28;20231;-84
2022/10/10 03:37:55;;;;;;;8.40;7.60;;;;;;;;;;5048238;28;20235;-84
2022/10/10 03:40:25;;;;;;;10.60;9.13;;;;;;;;;;5031201;28;20225;-85
2022/10/10 03:42:53;;;;;;;13.77;9.93;;;;;;;;;;5037552;28;20245;-84
2022/10/10 03:45:22;;;;;;;11.10;9.47;;;;;;;;;;5041131;28;20203;-85
2022/10/10 03:47:50;;;;;;;13.87;9.27;;;;;;;;;;5055463;28;20199;-84
2022/10/10 03:50:19;;;;;;;11.23;10.13;;;;;;;;;;5053112;28;20195;-84
2022/10/10 03:52:47;;;;;;;11.00;9.33;;;;;;;;;;5038529;28;20239;-84
2022/10/10 03:55:16;;;;;;;10.27;7.83;;;;;;;;;;5042340;28;20201;-84
2022/10/10 03:57:48;;;;;;;11.60;9.50;;;;;;;;;;5048416;28;20231;-85
2022/10/10 04:00:16;;;;;;;10.10;9.10;;;;;;;;;;5042135;28;20208;-84
2022/10/10 04:02:45;;;;;;;12.60;11.10;;;;;;;;;;5038730;28;20246;-84
2022/10/10 04:05:13;;;;;;;6.87;5.93;;;;;;;;;;5051014;28;20199;-85
2022/10/10 04:07:42;;;;;;;12.03;10.90;;;;;;;;;;5035194;28;20266;-84
2022/10/10 04:10:10;;;;;;;12.03;10.40;;;;;;;;;;5046201;28;20234;-85
2022/10/10 04:12:38;;;;;;;11.07;9.40;;;;;;;;;;5051295;28;20198;-84
2022/10/10 04:15:09;;;;;;;10.13;8.80;;;;;;;;;;5055195;28;20232;-84
2022/10/10 04:17:37;;;;;;;11.97;10.27;;;;;;;;;;5046513;28;20210;-84
2022/10/10 04:20:06;;;;;;;15.27;11.30;;;;;;;;;;5054944;28;20269;-84
2022/10/10 04:22:34;;;;;;;11.50;10.30;;;;;;;;;;5036030;28;20262;-84
2022/10/10 04:25:03;;;;;;;11.10;9.27;;;;;;;;;;5037811;28;20215;-85
2022/10/10 04:27:31;;;;;;;10.50;8.67;;;;;;;;;;5055415;28;20203;-85
2022/10/10 04:29:59;;;;;;;12.43;9.20;;;;;;;;;;5056133;28;20220;-84
2022/10/10 04:32:29;;;;;;;8.20;6.90;;;;;;;;;;5055328;28;20196;-84
2022/10/10 04:34:58;;;;;;;13.30;7.60;;;;;;;;;;5055009;28;20253;-85
2022/10/10 04:37:26;;;;;;;13.63;8.57;;;;;;;;;;5054800;28;20242;-85
2022/10/10 04:39:54;;;;;;;9.63;6.87;;;;;;;;;;5054320;28;20221;-84
2022/10/10 04:42:23;;;;;;;6.33;5.40;;;;;;;;;;5069602;28;20208;-85
2022/10/10 04:44:51;;;;;;;12.67;9.17;;;;;;;;;;5038388;28;20263;-84
2022/10/10 04:47:20;;;;;;;11.97;9.27;;;;;;;;;;5046347;28;20196;-84
2022/10/10 04:49:50;;;;;;;9.27;8.33;;;;;;;;;;5041851;28;20192;-85
2022/10/10 04:52:18;;;;;;;5.67;5.13;;;;;;;;;;5071628;28;20214;-84
2022/10/10 04:54:47;;;;;;;11.60;10.50;;;;;;;;;;5055771;28;20257;-84
2022/10/10 04:57:15;;;;;;;10.50;7.90;;;;;;;;;;5054797;28;20310;-84
2022/10/10 04:59:43;;;;;;;10.50;9.60;;;;;;;;;;5022063;28;20256;-84
2022/10/10 05:02:12;;;;;;;12.13;10.10;;;;;;;;;;5036201;28;20224;-84
2022/10/10 05:04:40;;;;;;;11.70;9.40;;;;;;;;;;5035090;28;20227;-84
2022/10/10 05:07:10;;;;;;;9.37;5.23;;;;;;;;;;5036282;28;20205;-84
2022/10/10 05:09:39;;;;;;;6.67;6.07;;;;;;;;;;5035425;28;20197;-85
2022/10/10 05:12:07;;;;;;;11.83;9.77;;;;;;;;;;5037351;28;20255;-84
2022/10/10 05:14:35;;;;;;;10.13;9.07;;;;;;;;;;5070984;28;20195;-84
2022/10/10 05:17:04;;;;;;;14.47;10.10;;;;;;;;;;5052978;28;20215;-84
2022/10/10 05:19:32;;;;;;;10.07;8.50;;;;;;;;;;5044656;28;20199;-82
2022/10/10 05:22:00;;;;;;;13.43;6.13;;;;;;;;;;5022426;28;20264;-82
2022/10/10 05:24:30;;;;;;;8.07;5.93;;;;;;;;;;5045985;28;20224;-82
2022/10/10 05:26:59;;;;;;;8.13;7.33;;;;;;;;;;5049778;28;20200;-82
2022/10/10 05:29:27;;;;;;;10.27;8.60;;;;;;;;;;5034381;28;20432;-82
2022/10/10 05:31:56;;;;;;;5.43;3.77;;;;;;;;;;5052322;28;20203;-82
2022/10/10 05:34:24;;;;;;;8.53;5.30;;;;;;;;;;5046663;28;20232;-82
2022/10/10 05:36:55;;;;;;;12.33;7.47;;;;;;;;;;5064185;28;20256;-81
2022/10/10 05:39:23;;;;;;;9.07;8.17;;;;;;;;;;5048756;28;20201;-82
2022/10/10 05:41:53;;;;;;;15.37;9.60;;;;;;;;;;5038459;28;20249;-82
2022/10/10 05:44:22;;;;;;;9.17;7.80;;;;;;;;;;5047785;28;20220;-83
2022/10/10 05:46:52;;;;;;;11.27;9.37;;;;;;;;;;5070325;28;20251;-82
2022/10/10 05:49:20;;;;;;;9.67;7.17;;;;;;;;;;5040747;28;20227;-82
2022/10/10 05:51:49;;;;;;;4.60;3.97;;;;;;;;;;5034670;28;20199;-82
2022/10/10 05:54:17;;;;;;;9.50;7.87;;;;;;;;;;5034652;28;20196;-82
2022/10/10 05:56:46;;;;;;;12.80;9.70;;;;;;;;;;5034648;28;20208;-82
2022/10/10 05:59:15;;;;;;;10.53;7.77;;;;;;;;;;5034891;28;20210;-82
2022/10/10 06:01:44;;;;;;;21.73;5.23;;;;;;;;;;5044490;28;20228;-82
2022/10/10 06:04:12;;;;;;;12.50;9.77;;;;;;;;;;5068991;28;20235;-82
2022/10/10 06:06:41;;;;;;;11.43;7.93;;;;;;;;;;5069898;28;20216;-82
2022/10/10 06:09:09;;;;;;;10.00;6.60;;;;;;;;;;5048561;28;20215;-82
2022/10/10 06:11:38;;;;;;;13.60;8.10;;;;;;;;;;5045841;28;20193;-82
2022/10/10 06:14:06;;;;;;;7.77;5.23;;;;;;;;;;5052099;28;20238;-82
2022/10/10 06:16:38;;;;;;;1.60;1.13;;;;;;;;;;5045472;28;20221;-82
2022/10/10 06:19:06;;;;;;;18.13;8.80;;;;;;;;;;5057189;28;20233;-82
2022/10/10 06:21:41;;;;;;;8.70;6.63;;;;;;;;;;5040098;28;20290;-83
2022/10/10 06:24:10;;;;;;;5.10;4.60;;;;;;;;;;5040624;28;20223;-82
2022/10/10 06:26:39;;;;;;;6.97;5.60;;;;;;;;;;5039152;28;20210;-82
2022/10/10 06:29:07;;;;;;;6.33;3.27;;;;;;;;;;5053691;28;20199;-82
2022/10/10 06:31:38;;;;;;;8.07;6.87;;;;;;;;;;5067073;28;20226;-82
2022/10/10 06:34:07;;;;;;;7.13;4.57;;;;;;;;;;5042308;28;20204;-82
2022/10/10 06:36:37;;;;;;;11.53;8.93;;;;;;;;;;5036525;28;20206;-82
2022/10/10 06:39:06;;;;;;;7.00;6.13;;;;;;;;;;5043342;28;20231;-82
2022/10/10 06:41:34;;;;;;;14.40;8.37;;;;;;;;;;5063759;28;20202;-81
2022/10/10 06:44:03;;;;;;;9.77;8.07;;;;;;;;;;5043474;28;20225;-82
2022/10/10 06:46:33;;;;;;;19.03;9.63;;;;;;;;;;5047864;28;20205;-82
2022/10/10 06:49:02;;;;;;;11.43;9.13;;;;;;;;;;5032576;28;20218;-82
2022/10/10 06:51:34;;;;;;;12.37;8.70;;;;;;;;;;5050988;28;20239;-82
2022/10/10 06:54:03;;;;;;;11.37;8.47;;;;;;;;;;5068851;28;20213;-82
2022/10/10 06:56:31;;;;;;;12.60;10.37;;;;;;;;;;5032775;28;20204;-82
2022/10/10 06:58:59;;;;;;;13.33;9.70;;;;;;;;;;5033347;28;20228;-82
2022/10/10 07:01:28;;;;;;;12.50;8.57;;;;;;;;;;5061615;28;20218;-82
2022/10/10 07:04:05;;;;;;;14.10;10.10;;;;;;;;;;5031202;28;20228;-82
2022/10/10 07:06:34;;;;;;;13.03;8.70;;;;;;;;;;5034027;28;20235;-83
2022/10/10 07:09:05;;;;;;;8.40;6.20;;;;;;;;;;5032627;28;20277;-83
2022/10/10 07:11:33;;;;;;;8.93;6.83;;;;;;;;;;5032670;28;20295;-83
2022/10/10 07:14:02;;;;;;;13.20;10.77;;;;;;;;;;5046935;28;20229;-83
2022/10/10 07:16:32;;;;;;;12.00;8.77;;;;;;;;;;5052245;28;20270;-81
2022/10/10 07:19:06;;;;;;;11.57;8.37;;;;;;;;;;5036495;28;20528;-83
2022/10/10 07:21:36;;;;;;;12.03;9.87;;;;;;;;;;5014687;28;20201;-83
2022/10/10 07:24:07;;;;;;;14.40;10.37;;;;;;;;;;5019821;28;20216;-84
2022/10/10 07:26:37;;;;;;;11.37;8.07;;;;;;;;;;5024833;28;20214;-83
2022/10/10 07:29:07;;;;;;;12.93;10.27;;;;;;;;;;5030989;28;20261;-82
2022/10/10 07:31:35;;;;;;;12.47;11.17;;;;;;;;;;5027103;28;20213;-84
2022/10/10 07:34:06;;;;;;;9.97;8.53;;;;;;;;;;5007784;28;20294;-83
2022/10/10 07:39:24;;;;;;;11.37;9.33;;;;;;;;;;5025591;28;20625;-84
2022/10/10 07:41:55;;;;;;;10.90;6.27;;;;;;;;;;5009545;28;20203;-84
2022/10/10 07:44:31;;;;;;;17.40;9.53;;;;;;;;;;5009984;28;20203;-84
2022/10/10 07:47:02;;;;;;;14.57;8.53;;;;;;;;;;5023571;28;20203;-83
2022/10/10 07:49:35;;;;;;;11.37;9.60;;;;;;;;;;5022984;28;20348;-83
2022/10/10 07:52:04;;;;;;;8.70;6.80;;;;;;;;;;5025466;28;20207;-83
2022/10/10 07:54:49;;;;;;;13.23;11.10;;;;;;;;;;5022484;28;20209;-83
2022/10/10 07:57:18;;;;;;;11.23;8.40;;;;;;;;;;5023580;28;20207;-84
2022/10/10 07:59:46;;;;;;;6.23;4.37;;;;;;;;;;5017107;28;20207;-82
2022/10/10 08:02:20;;;;;;;10.40;7.87;;;;;;;;;;5014837;28;20219;-83
2022/10/10 08:04:51;;;;;;;6.50;4.83;;;;;;;;;;5013711;28;20390;-83
2022/10/10 08:07:19;;;;;;;12.47;9.53;;;;;;;;;;5034982;28;20205;-82
2022/10/10 08:09:48;;;;;;;8.57;4.27;;;;;;;;;;5008579;28;21659;-83
2022/10/10 08:12:24;;;;;;;13.57;9.30;;;;;;;;;;5018749;28;20214;-83
2022/10/10 08:15:08;;;;;;;13.80;8.87;;;;;;;;;;5017703;28;20340;-83
2022/10/10 08:17:59;;;;;;;13.70;8.47;;;;;;;;;;5016765;28;20206;-81
2022/10/10 08:20:29;;;;;;;14.60;9.07;;;;;;;;;;5016241;28;20198;-83
2022/10/10 08:23:06;;;;;;;11.03;8.93;;;;;;;;;;5017269;28;20213;-82
2022/10/10 08:25:44;;;;;;;13.07;8.67;;;;;;;;;;5020328;28;20227;-83
2022/10/10 08:28:13;;;;;;;17.73;10.70;;;;;;;;;;5016440;28;20191;-83
2022/10/10 08:30:42;;;;;;;11.07;8.13;;;;;;;;;;5027066;28;20207;-83
2022/10/10 08:33:12;;;;;;;6.67;4.07;;;;;;;;;;5017978;28;20222;-83
2022/10/10 08:35:44;;;;;;;18.13;8.37;;;;;;;;;;5026833;28;20226;-84
2022/10/10 08:38:16;;;;;;;8.73;7.20;;;;;;;;;;5018192;28;20273;-84
2022/10/10 08:40:50;;;;;;;11.70;9.40;;;;;;;;;;5019040;28;20195;-83
2022/10/10 08:43:30;;;;;;;13.17;9.10;;;;;;;;;;5020645;28;20267;-84
2022/10/10 08:46:35;;;;;;;10.77;8.27;;;;;;;;;;5023117;28;20412;-84
2022/10/10 08:49:12;;;;;;;11.43;9.27;;;;;;;;;;5013633;28;20215;-84
2022/10/10 08:51:47;;;;;;;9.63;7.67;;;;;;;;;;5004811;28;20211;-83
2022/10/10 08:54:17;;;;;;;5.73;4.60;;;;;;;;;;5003540;28;20203;-84
2022/10/10 08:56:46;;;;;;;11.23;8.30;;;;;;;;;;5004960;28;20262;-82
2022/10/10 08:59:16;;;;;;;11.30;9.23;;;;;;;;;;5011076;28;20255;-83
2022/10/10 09:01:45;;;;;;;13.97;10.50;;;;;;;;;;5012800;28;20223;-82
2022/10/10 09:04:38;;;;;;;8.17;6.73;;;;;;;;;;5019260;28;20326;-83
2022/10/10 09:10:11;;;;;;;10.37;7.87;;;;;;;;;;5008217;28;20269;-82
2022/10/10 09:12:56;;;;;;;10.63;8.20;;;;;;;;;;4999968;28;20203;-83
2022/10/10 09:15:42;;;;;;;12.50;7.77;;;;;;;;;;5003256;28;20202;-83
2022/10/10 09:18:15;;;;;;;13.03;8.37;;;;;;;;;;5007616;28;20214;-83
2022/10/10 09:20:52;;;;;;;10.27;8.27;;;;;;;;;;5022756;28;20224;-82
2022/10/10 09:23:29;;;;;;;12.07;8.63;;;;;;;;;;5005699;28;20211;-84
2022/10/10 09:26:01;;;;;;;12.60;7.23;;;;;;;;;;5005291;28;20219;-83
2022/10/10 09:28:49;;;;;;;6.37;5.77;;;;;;;;;;5004811;28;20207;-83
2022/10/10 09:31:50;;;;;;;12.43;6.87;;;;;;;;;;5011756;28;20220;-83
2022/10/10 09:34:49;;;;;;;14.40;7.37;;;;;;;;;;5002673;28;20215;-83
2022/10/10 09:37:19;;;;;;;11.27;7.20;;;;;;;;;;5022323;28;20232;-82
2022/10/10 09:40:15;;;;;;;7.37;6.23;;;;;;;;;;5024644;28;20216;-82
2022/10/10 09:42:51;;;;;;;11.27;7.90;;;;;;;;;;5005774;28;20213;-83
2022/10/10 09:45:39;;;;;;;1.90;1.73;;;;;;;;;;5007594;28;20214;-82
2022/10/10 09:48:14;;;;;;;7.20;4.60;;;;;;;;;;5027588;28;20205;-82
2022/10/10 09:50:43;;;;;;;8.30;5.37;;;;;;;;;;5036798;28;20205;-82
2022/10/10 09:53:16;;;;;;;6.43;5.67;;;;;;;;;;5026749;28;20200;-82
2022/10/10 09:56:26;;;;;;;15.47;7.63;;;;;;;;;;5022176;28;20254;-83
2022/10/10 09:59:28;;;;;;;1.47;1.37;;;;;;;;;;5034306;28;20209;-83
2022/10/10 10:02:19;;;;;;;1.77;1.67;;;;;;;;;;5022839;28;20229;-82
2022/10/10 10:04:51;;;;;;;0.90;0.90;;;;;;;;;;5024988;28;20243;-81
2022/10/10 10:07:55;;;;;;;7.37;2.10;;;;;;;;;;5032496;28;20308;-82
2022/10/10 10:10:29;;;;;;;12.33;4.73;;;;;;;;;;5023411;28;20216;-82
2022/10/10 10:13:07;;;;;;;1.30;1.20;;;;;;;;;;5016487;28;20221;-82
2022/10/10 10:15:35;;;;;;;1.73;1.13;;;;;;;;;;5016271;28;20195;-82
2022/10/10 10:18:26;;;;;;;1.70;1.60;;;;;;;;;;5012390;28;20214;-82
2022/10/10 10:21:09;;;;;;;0.70;0.70;;;;;;;;;;5025100;28;20334;-82
2022/10/10 10:23:49;;;;;;;0.90;0.90;;;;;;;;;;5007677;28;20245;-82
2022/10/10 10:26:26;;;;;;;1.03;0.87;;;;;;;;;;5009114;28;20226;-82
2022/10/10 10:29:05;;;;;;;3.13;1.77;;;;;;;;;;5007825;28;20211;-82
2022/10/10 10:31:54;;;;;;;2.17;1.97;;;;;;;;;;5009526;28;20217;-83
2022/10/10 10:34:40;;;;;;;7.67;3.30;;;;;;;;;;5025269;28;20214;-87
2022/10/10 10:37:16;;;;;;;1.10;1.00;;;;;;;;;;5005769;28;20196;-83
2022/10/10 10:39:55;;;;;;;3.27;1.53;;;;;;;;;;5010788;28;20213;-82
2022/10/10 10:42:33;;;;;;;1.37;1.07;;;;;;;;;;5012177;28;20221;-82
2022/10/10 10:45:04;;;;;;;3.50;2.27;;;;;;;;;;5026060;28;20222;-81
2022/10/10 10:47:40;;;;;;;0.60;0.60;;;;;;;;;;5008517;28;20235;-81
2022/10/10 10:50:26;;;;;;;4.07;1.80;;;;;;;;;;5026036;28;20216;-81
2022/10/10 10:53:00;;;;;;;2.60;2.40;;;;;;;;;;5011268;28;20204;-81
2022/10/10 10:55:36;;;;;;;2.13;1.30;;;;;;;;;;5025512;28;20207;-80
2022/10/10 10:58:33;;;;;;;5.23;1.93;;;;;;;;;;5011025;28;20201;-81
2022/10/10 11:01:25;;;;;;;9.00;2.10;;;;;;;;;;5009690;28;20354;-81
2022/10/10 11:04:20;;;;;;;2.97;2.60;;;;;;;;;;5023808;28;20211;-82
2022/10/10 11:07:14;;;;;;;2.50;1.50;;;;;;;;;;5007295;28;20219;-81
2022/10/10 11:09:52;;;;;;;5.93;1.90;;;;;;;;;;5010380;28;20264;-82
2022/10/10 11:12:38;;;;;;;1.27;1.17;;;;;;;;;;5014195;28;20203;-81
2022/10/10 11:15:10;;;;;;;1.40;1.30;;;;;;;;;;5023732;28;20204;-82
2022/10/10 11:17:40;;;;;;;2.50;1.30;;;;;;;;;;5010173;28;20277;-81
2022/10/10 11:20:17;;;;;;;2.00;1.60;;;;;;;;;;5013128;28;20215;-82
2022/10/10 11:22:51;;;;;;;1.17;1.17;;;;;;;;;;5013351;28;20213;-81
2022/10/10 11:25:22;;;;;;;3.30;1.00;;;;;;;;;;5013135;28;20272;-81
2022/10/10 11:27:53;;;;;;;1.60;0.90;;;;;;;;;;5007969;28;20380;-81
2022/10/10 11:30:24;;;;;;;0.40;0.40;;;;;;;;;;5011668;28;20252;-82
2022/10/10 11:32:54;;;;;;;0.50;0.50;;;;;;;;;;5006578;28;20217;-81
2022/10/10 11:35:26;;;;;;;1.90;1.53;;;;;;;;;;5022638;28;20265;-82
2022/10/10 11:38:00;;;;;;;0.40;0.40;;;;;;;;;;5010350;28;20321;-81
2022/10/10 11:40:41;;;;;;;1.23;1.23;;;;;;;;;;5023646;28;20221;-81
2022/10/10 11:43:14;;;;;;;0.40;0.40;;;;;;;;;;5014337;28;20205;-82
2022/10/10 11:45:47;;;;;;;0.30;0.30;;;;;;;;;;5033787;28;20292;-81
2022/10/10 11:48:26;;;;;;;0.40;0.40;;;;;;;;;;5021970;28;20296;-82
2022/10/10 11:50:56;;;;;;;0.40;0.40;;;;;;;;;;5040848;28;20255;-81
2022/10/10 11:53:36;;;;;;;0.40;0.40;;;;;;;;;;5038847;28;20224;-81
2022/10/10 11:56:10;;;;;;;0.60;0.60;;;;;;;;;;5026293;28;20295;-81
2022/10/10 11:58:41;;;;;;;0.60;0.60;;;;;;;;;;5013944;28;20201;-81
2022/10/10 12:01:13;;;;;;;0.40;0.40;;;;;;;;;;5023728;28;20231;-81
2022/10/10 12:03:42;;;;;;;0.40;0.40;;;;;;;;;;5038031;28;20200;-81
2022/10/10 12:06:15;;;;;;;0.40;0.40;;;;;;;;;;5026418;28;20215;-80
2022/10/10 12:08:49;;;;;;;0.50;0.50;;;;;;;;;;5022682;28;20247;-81
2022/10/10 12:11:20;;;;;;;0.70;0.70;;;;;;;;;;5043396;28;20213;-81
2022/10/10 12:13:52;;;;;;;1.23;0.87;;;;;;;;;;5035944;28;20196;-81
2022/10/10 12:16:24;;;;;;;0.77;0.73;;;;;;;;;;5021192;28;20199;-81
2022/10/10 12:19:01;;;;;;;0.40;0.40;;;;;;;;;;5033888;28;20253;-81
2022/10/10 12:21:30;;;;;;;0.40;0.40;;;;;;;;;;5040577;28;20210;-81
2022/10/10 12:24:09;;;;;;;0.40;0.40;;;;;;;;;;5029575;28;20191;-81
2022/10/10 12:26:55;;;;;;;0.40;0.40;;;;;;;;;;5016791;28;20211;-81
2022/10/10 12:29:39;;;;;;;0.40;0.40;;;;;;;;;;4999504;28;20234;-80
2022/10/10 12:32:27;;;;;;;0.40;0.40;;;;;;;;;;5018628;28;20267;-80
2022/10/10 12:34:59;;;;;;;0.40;0.40;;;;;;;;;;5022531;28;20206;-80
2022/10/10 12:37:29;;;;;;;0.40;0.40;;;;;;;;;;5040724;28;20234;-80
2022/10/10 12:40:18;;;;;;;0.40;0.40;;;;;;;;;;5020808;28;20261;-80
2022/10/10 12:43:05;;;;;;;0.40;0.40;;;;;;;;;;5020187;28;20243;-81
2022/10/10 12:45:52;;;;;;;0.40;0.40;;;;;;;;;;5032593;28;20204;-80
2022/10/10 12:48:22;;;;;;;0.40;0.40;;;;;;;;;;5041994;28;20241;-80
2022/10/10 12:50:55;;;;;;;0.40;0.40;;;;;;;;;;5024659;28;20211;-80
2022/10/10 12:53:25;;;;;;;0.40;0.40;;;;;;;;;;5023202;28;20247;-80
2022/10/10 12:55:55;;;;;;;0.40;0.40;;;;;;;;;;5024415;28;20374;-81
2022/10/10 12:58:25;;;;;;;0.40;0.40;;;;;;;;;;5026725;28;20195;-80
2022/10/10 13:00:56;;;;;;;0.40;0.40;;;;;;;;;;5024848;28;20237;-80
2022/10/10 13:03:28;;;;;;;0.40;0.40;;;;;;;;;;5021723;28;20333;-80
2022/10/10 13:05:56;;;;;;;0.40;0.40;;;;;;;;;;5024381;28;20219;-80
2022/10/10 13:08:27;;;;;;;0.50;0.50;;;;;;;;;;5025829;28;20239;-80
2022/10/10 13:11:03;;;;;;;0.40;0.40;;;;;;;;;;5028313;28;20216;-80
2022/10/10 13:13:32;;;;;;;0.40;0.40;;;;;;;;;;5038087;28;20222;-80
2022/10/10 13:16:05;;;;;;;0.40;0.40;;;;;;;;;;5017128;28;20214;-80
2022/10/10 13:18:37;;;;;;;0.40;0.40;;;;;;;;;;5022222;28;20203;-81
2022/10/10 13:21:06;;;;;;;0.40;0.40;;;;;;;;;;5017898;28;20275;-81
2022/10/10 13:23:35;;;;;;;0.40;0.40;;;;;;;;;;5037423;28;20200;-81
2022/10/10 13:26:04;;;;;;;0.40;0.40;;;;;;;;;;5022235;28;20222;-81
2022/10/10 13:28:33;;;;;;;0.40;0.40;;;;;;;;;;5027932;28;20214;-81
2022/10/10 13:31:01;;;;;;;0.40;0.40;;;;;;;;;;5020095;28;20207;-81
2022/10/10 13:33:34;;;;;;;0.40;0.40;;;;;;;;;;5026525;28;20210;-80
2022/10/10 13:36:08;;;;;;;0.40;0.40;;;;;;;;;;5021660;28;20242;-81
2022/10/10 13:38:37;;;;;;;0.40;0.40;;;;;;;;;;5027739;28;20242;-80
2022/10/10 13:41:06;;;;;;;0.40;0.40;;;;;;;;;;5020008;28;20212;-81
2022/10/10 13:43:34;;;;;;;0.40;0.40;;;;;;;;;;5023753;28;20200;-81
2022/10/10 13:46:04;;;;;;;0.40;0.40;;;;;;;;;;5035750;28;20203;-82
2022/10/10 13:48:39;;;;;;;0.40;0.40;;;;;;;;;;5015337;28;20216;-82
2022/10/10 13:51:11;;;;;;;0.40;0.40;;;;;;;;;;5021600;28;20215;-82
2022/10/10 13:53:50;;;;;;;0.40;0.40;;;;;;;;;;5022675;28;20203;-83
2022/10/10 13:56:23;;;;;;;0.40;0.40;;;;;;;;;;5040567;28;20200;-82
2022/10/10 13:58:52;;;;;;;0.40;0.40;;;;;;;;;;5038077;28;20192;-81
2022/10/10 14:01:32;;;;;;;0.40;0.40;;;;;;;;;;5019258;28;20306;-82
2022/10/10 14:04:03;;;;;;;0.40;0.40;;;;;;;;;;5026455;28;20210;-82
2022/10/10 14:06:33;;;;;;;0.40;0.40;;;;;;;;;;5019896;28;20215;-83
2022/10/10 14:09:09;;;;;;;0.40;0.40;;;;;;;;;;5020470;28;20210;-82
2022/10/10 14:11:38;;;;;;;0.40;0.40;;;;;;;;;;5036558;28;20237;-83
2022/10/10 14:14:08;;;;;;;0.40;0.40;;;;;;;;;;5017200;28;20303;-84
2022/10/10 14:16:37;;;;;;;0.40;0.40;;;;;;;;;;5016091;28;20204;-83
2022/10/10 14:19:14;;;;;;;0.40;0.40;;;;;;;;;;5019623;28;20214;-84
2022/10/10 14:21:46;;;;;;;0.40;0.40;;;;;;;;;;5034975;28;20202;-83
2022/10/10 14:24:15;;;;;;;0.43;0.43;;;;;;;;;;5026624;28;20377;-83
2022/10/10 14:26:43;;;;;;;0.40;0.40;;;;;;;;;;5020109;28;20303;-83
2022/10/10 14:29:16;;;;;;;0.40;0.40;;;;;;;;;;5024790;28;20217;-83
2022/10/10 14:31:45;;;;;;;0.40;0.40;;;;;;;;;;5043664;28;20245;-83
2022/10/10 14:34:17;;;;;;;0.40;0.40;;;;;;;;;;5021208;28;20222;-84
2022/10/10 14:36:49;;;;;;;0.40;0.40;;;;;;;;;;5039172;28;20203;-83
2022/10/10 14:39:19;;;;;;;0.40;0.40;;;;;;;;;;5019762;28;20255;-84
2022/10/10 14:41:50;;;;;;;0.40;0.40;;;;;;;;;;5015555;28;20230;-84
2022/10/10 14:44:24;;;;;;;0.40;0.40;;;;;;;;;;5017533;28;20208;-84
2022/10/10 14:46:53;;;;;;;0.40;0.40;;;;;;;;;;5019114;28;20207;-83
2022/10/10 14:49:22;;;;;;;0.40;0.40;;;;;;;;;;5020943;28;20211;-83
2022/10/10 14:51:53;;;;;;;0.40;0.40;;;;;;;;;;5021070;28;20198;-83
2022/10/10 14:54:22;;;;;;;0.40;0.40;;;;;;;;;;5021731;28;20214;-84
2022/10/10 14:56:50;;;;;;;0.40;0.40;;;;;;;;;;5034991;28;20199;-84
2022/10/10 14:59:37;;;;;;;0.40;0.40;;;;;;;;;;5025739;28;20286;-84
2022/10/10 15:02:17;;;;;;;0.40;0.40;;;;;;;;;;5019224;28;20219;-84
2022/10/10 15:04:46;;;;;;;0.37;0.37;;;;;;;;;;5032652;28;20216;-84
2022/10/10 15:07:16;;;;;;;0.37;0.37;;;;;;;;;;5037300;28;20198;-84
2022/10/10 15:09:45;;;;;;;0.30;0.30;;;;;;;;;;5017477;28;20216;-83
2022/10/10 15:12:34;;;;;;;0.30;0.30;;;;;;;;;;5031184;28;20219;-83
2022/10/10 15:15:03;;;;;;;0.40;0.40;;;;;;;;;;5027739;28;20196;-84
2022/10/10 15:17:33;;;;;;;0.40;0.40;;;;;;;;;;5019200;28;20286;-84